Falls Of Rough, Kentucky
Current Conditions -  °F | °C
As of 2:58 PM on Friday 28 Nov 2014 (Local Time) from KFTK Reporting Station
Clear Clear  
Wind Chill: 31°   Ceiling: Unl
Heat Index: 39°   Visibility: 10mi
Dew Point: 24°   Wind: 15mph
Humidity: 55%   Direction: 150°SSE
Pressure: 30.18"   Gusts: NA
Location:  37.57°N, 86.48°W
Report Text: KFTK 282058Z AUTO 15013KT 10SM CLR 04/M04 A3018 RMK AO2 SLP231 60001 T00391043 57035
Loading
Personal Weather Stations






























Interactive Weather Map New forecast layout! Learn more

10-Day Weather Forecast

Advertisements
Track Severe Weather on mobile